sensor_id;sensor_type;location;lat;lon;timestamp;P1;durP1;ratioP1;P2;durP2;ratioP2
6105;SDS011;3083;51.508;7.966;2023-08-12T00:01:52;20.57;;;12.43;;
6105;SDS011;3083;51.508;7.966;2023-08-12T00:04:19;21.37;;;11.90;;
6105;SDS011;3083;51.508;7.966;2023-08-12T00:06:47;24.27;;;14.23;;
6105;SDS011;3083;51.508;7.966;2023-08-12T00:09:14;21.93;;;13.50;;
6105;SDS011;3083;51.508;7.966;2023-08-12T00:11:43;20.50;;;12.97;;
6105;SDS011;3083;51.508;7.966;2023-08-12T00:14:11;20.70;;;13.10;;
6105;SDS011;3083;51.508;7.966;2023-08-12T00:16:38;21.30;;;13.57;;
6105;SDS011;3083;51.508;7.966;2023-08-12T00:19:05;28.83;;;14.30;;
6105;SDS011;3083;51.508;7.966;2023-08-12T00:21:33;22.93;;;14.50;;
6105;SDS011;3083;51.508;7.966;2023-08-12T00:24:00;25.93;;;14.70;;
6105;SDS011;3083;51.508;7.966;2023-08-12T00:26:27;24.47;;;14.70;;
6105;SDS011;3083;51.508;7.966;2023-08-12T00:28:54;20.40;;;14.07;;
6105;SDS011;3083;51.508;7.966;2023-08-12T00:31:22;21.07;;;14.63;;
6105;SDS011;3083;51.508;7.966;2023-08-12T00:33:49;25.43;;;15.00;;
6105;SDS011;3083;51.508;7.966;2023-08-12T00:36:16;23.17;;;15.33;;
6105;SDS011;3083;51.508;7.966;2023-08-12T00:38:43;26.07;;;15.67;;
6105;SDS011;3083;51.508;7.966;2023-08-12T00:41:10;23.13;;;16.00;;
6105;SDS011;3083;51.508;7.966;2023-08-12T00:43:37;26.73;;;16.50;;
6105;SDS011;3083;51.508;7.966;2023-08-12T00:46:04;23.53;;;15.50;;
6105;SDS011;3083;51.508;7.966;2023-08-12T00:48:33;25.03;;;15.27;;
6105;SDS011;3083;51.508;7.966;2023-08-12T00:51:00;27.47;;;15.90;;
6105;SDS011;3083;51.508;7.966;2023-08-12T00:53:28;21.97;;;15.40;;
6105;SDS011;3083;51.508;7.966;2023-08-12T00:55:55;24.87;;;15.10;;
6105;SDS011;3083;51.508;7.966;2023-08-12T00:58:22;25.63;;;16.67;;
6105;SDS011;3083;51.508;7.966;2023-08-12T01:00:49;26.20;;;16.03;;
6105;SDS011;3083;51.508;7.966;2023-08-12T01:03:16;26.67;;;16.30;;
6105;SDS011;3083;51.508;7.966;2023-08-12T01:05:45;27.63;;;17.17;;
6105;SDS011;3083;51.508;7.966;2023-08-12T01:08:13;23.87;;;16.27;;
6105;SDS011;3083;51.508;7.966;2023-08-12T01:10:42;22.03;;;16.30;;
6105;SDS011;3083;51.508;7.966;2023-08-12T01:13:18;27.67;;;16.10;;
6105;SDS011;3083;51.508;7.966;2023-08-12T01:15:56;29.50;;;17.93;;
6105;SDS011;3083;51.508;7.966;2023-08-12T01:18:28;29.23;;;18.27;;
6105;SDS011;3083;51.508;7.966;2023-08-12T01:20:56;34.90;;;21.23;;
6105;SDS011;3083;51.508;7.966;2023-08-12T01:23:30;32.73;;;21.20;;
6105;SDS011;3083;51.508;7.966;2023-08-12T01:25:58;34.00;;;20.43;;
6105;SDS011;3083;51.508;7.966;2023-08-12T01:28:24;34.77;;;21.10;;
6105;SDS011;3083;51.508;7.966;2023-08-12T01:30:54;34.57;;;20.80;;
6105;SDS011;3083;51.508;7.966;2023-08-12T01:33:28;43.00;;;23.80;;
6105;SDS011;3083;51.508;7.966;2023-08-12T01:36:03;38.10;;;23.30;;
6105;SDS011;3083;51.508;7.966;2023-08-12T01:38:37;36.67;;;22.90;;
6105;SDS011;3083;51.508;7.966;2023-08-12T01:41:06;42.63;;;23.90;;
6105;SDS011;3083;51.508;7.966;2023-08-12T01:43:35;42.67;;;24.77;;
6105;SDS011;3083;51.508;7.966;2023-08-12T01:46:03;42.73;;;25.00;;
6105;SDS011;3083;51.508;7.966;2023-08-12T01:48:30;48.20;;;25.67;;
6105;SDS011;3083;51.508;7.966;2023-08-12T01:50:57;42.47;;;25.67;;
6105;SDS011;3083;51.508;7.966;2023-08-12T01:53:24;48.53;;;27.13;;
6105;SDS011;3083;51.508;7.966;2023-08-12T01:55:52;50.20;;;28.60;;
6105;SDS011;3083;51.508;7.966;2023-08-12T01:58:19;51.43;;;28.57;;
6105;SDS011;3083;51.508;7.966;2023-08-12T02:00:46;51.17;;;28.80;;
6105;SDS011;3083;51.508;7.966;2023-08-12T02:03:14;52.90;;;30.80;;
6105;SDS011;3083;51.508;7.966;2023-08-12T02:05:40;60.40;;;30.27;;
6105;SDS011;3083;51.508;7.966;2023-08-12T02:08:08;56.40;;;31.23;;
6105;SDS011;3083;51.508;7.966;2023-08-12T02:10:35;55.17;;;31.77;;
6105;SDS011;3083;51.508;7.966;2023-08-12T02:13:04;54.83;;;30.30;;
6105;SDS011;3083;51.508;7.966;2023-08-12T02:15:31;51.57;;;30.83;;
6105;SDS011;3083;51.508;7.966;2023-08-12T02:17:58;55.37;;;31.50;;
6105;SDS011;3083;51.508;7.966;2023-08-12T02:20:25;57.67;;;31.80;;
6105;SDS011;3083;51.508;7.966;2023-08-12T02:22:52;58.57;;;31.50;;
6105;SDS011;3083;51.508;7.966;2023-08-12T02:25:19;53.00;;;29.20;;
6105;SDS011;3083;51.508;7.966;2023-08-12T02:27:46;48.75;;;28.60;;
6105;SDS011;3083;51.508;7.966;2023-08-12T02:30:14;52.00;;;30.70;;
6105;SDS011;3083;51.508;7.966;2023-08-12T02:32:41;47.90;;;28.30;;
6105;SDS011;3083;51.508;7.966;2023-08-12T02:35:09;50.73;;;30.67;;
6105;SDS011;3083;51.508;7.966;2023-08-12T02:37:36;41.37;;;27.87;;
6105;SDS011;3083;51.508;7.966;2023-08-12T02:40:04;46.80;;;26.87;;
6105;SDS011;3083;51.508;7.966;2023-08-12T02:42:32;45.10;;;27.47;;
6105;SDS011;3083;51.508;7.966;2023-08-12T02:44:59;42.53;;;26.13;;
6105;SDS011;3083;51.508;7.966;2023-08-12T02:47:27;47.87;;;26.40;;
6105;SDS011;3083;51.508;7.966;2023-08-12T02:49:54;40.47;;;26.20;;
6105;SDS011;3083;51.508;7.966;2023-08-12T02:52:21;42.47;;;26.90;;
6105;SDS011;3083;51.508;7.966;2023-08-12T02:54:48;40.17;;;25.97;;
6105;SDS011;3083;51.508;7.966;2023-08-12T02:57:16;39.03;;;25.30;;
6105;SDS011;3083;51.508;7.966;2023-08-12T02:59:43;38.17;;;24.13;;
6105;SDS011;3083;51.508;7.966;2023-08-12T03:02:10;42.43;;;26.33;;
6105;SDS011;3083;51.508;7.966;2023-08-12T03:04:38;38.70;;;25.67;;
6105;SDS011;3083;51.508;7.966;2023-08-12T03:07:05;41.27;;;25.70;;
6105;SDS011;3083;51.508;7.966;2023-08-12T03:09:32;40.80;;;26.67;;
6105;SDS011;3083;51.508;7.966;2023-08-12T03:11:59;38.83;;;24.83;;
6105;SDS011;3083;51.508;7.966;2023-08-12T03:14:28;42.17;;;27.00;;
6105;SDS011;3083;51.508;7.966;2023-08-12T03:16:55;43.33;;;26.57;;
6105;SDS011;3083;51.508;7.966;2023-08-12T03:19:22;42.07;;;29.30;;
6105;SDS011;3083;51.508;7.966;2023-08-12T03:21:51;42.07;;;30.03;;
6105;SDS011;3083;51.508;7.966;2023-08-12T03:24:18;45.00;;;32.00;;
6105;SDS011;3083;51.508;7.966;2023-08-12T03:26:45;42.20;;;30.60;;
6105;SDS011;3083;51.508;7.966;2023-08-12T03:29:11;43.83;;;28.53;;
6105;SDS011;3083;51.508;7.966;2023-08-12T03:31:38;37.93;;;24.60;;
6105;SDS011;3083;51.508;7.966;2023-08-12T03:34:05;39.10;;;24.97;;
6105;SDS011;3083;51.508;7.966;2023-08-12T03:36:33;40.57;;;25.30;;
6105;SDS011;3083;51.508;7.966;2023-08-12T03:39:01;43.20;;;26.73;;
6105;SDS011;3083;51.508;7.966;2023-08-12T03:41:28;47.07;;;29.90;;
6105;SDS011;3083;51.508;7.966;2023-08-12T03:43:55;44.40;;;28.50;;
6105;SDS011;3083;51.508;7.966;2023-08-12T03:46:23;41.63;;;25.90;;
6105;SDS011;3083;51.508;7.966;2023-08-12T03:48:50;36.30;;;24.50;;
6105;SDS011;3083;51.508;7.966;2023-08-12T03:51:17;36.33;;;24.30;;
6105;SDS011;3083;51.508;7.966;2023-08-12T03:53:44;34.53;;;22.47;;
6105;SDS011;3083;51.508;7.966;2023-08-12T03:56:12;33.25;;;22.20;;
6105;SDS011;3083;51.508;7.966;2023-08-12T03:58:41;33.17;;;23.20;;
6105;SDS011;3083;51.508;7.966;2023-08-12T04:01:08;39.10;;;24.03;;
6105;SDS011;3083;51.508;7.966;2023-08-12T04:03:35;34.47;;;22.63;;
6105;SDS011;3083;51.508;7.966;2023-08-12T04:06:02;37.10;;;23.20;;
6105;SDS011;3083;51.508;7.966;2023-08-12T04:08:29;35.37;;;23.60;;
6105;SDS011;3083;51.508;7.966;2023-08-12T04:10:57;37.00;;;23.37;;
6105;SDS011;3083;51.508;7.966;2023-08-12T04:13:25;38.07;;;23.53;;
6105;SDS011;3083;51.508;7.966;2023-08-12T04:15:52;36.57;;;23.80;;
6105;SDS011;3083;51.508;7.966;2023-08-12T04:18:19;38.00;;;23.57;;
6105;SDS011;3083;51.508;7.966;2023-08-12T04:20:47;35.50;;;23.25;;
6105;SDS011;3083;51.508;7.966;2023-08-12T04:23:15;35.60;;;24.27;;
6105;SDS011;3083;51.508;7.966;2023-08-12T04:25:42;35.60;;;23.90;;
6105;SDS011;3083;51.508;7.966;2023-08-12T04:28:10;34.80;;;23.70;;
6105;SDS011;3083;51.508;7.966;2023-08-12T04:30:41;41.03;;;25.57;;
6105;SDS011;3083;51.508;7.966;2023-08-12T04:33:08;35.83;;;21.83;;
6105;SDS011;3083;51.508;7.966;2023-08-12T04:35:35;23.17;;;14.20;;
6105;SDS011;3083;51.508;7.966;2023-08-12T04:38:02;22.97;;;17.63;;
6105;SDS011;3083;51.508;7.966;2023-08-12T04:40:29;21.40;;;14.27;;
6105;SDS011;3083;51.508;7.966;2023-08-12T04:42:56;24.13;;;18.93;;
6105;SDS011;3083;51.508;7.966;2023-08-12T04:45:24;27.43;;;19.87;;
6105;SDS011;3083;51.508;7.966;2023-08-12T04:47:53;26.60;;;19.43;;
6105;SDS011;3083;51.508;7.966;2023-08-12T04:50:22;30.40;;;21.90;;
6105;SDS011;3083;51.508;7.966;2023-08-12T04:52:49;31.37;;;23.17;;
6105;SDS011;3083;51.508;7.966;2023-08-12T04:55:16;38.07;;;23.07;;
6105;SDS011;3083;51.508;7.966;2023-08-12T04:57:43;27.73;;;18.93;;
6105;SDS011;3083;51.508;7.966;2023-08-12T05:00:11;24.10;;;17.40;;
6105;SDS011;3083;51.508;7.966;2023-08-12T05:02:38;25.63;;;17.60;;
6105;SDS011;3083;51.508;7.966;2023-08-12T05:05:07;29.00;;;18.93;;
6105;SDS011;3083;51.508;7.966;2023-08-12T05:07:35;23.90;;;18.77;;
6105;SDS011;3083;51.508;7.966;2023-08-12T05:10:02;21.77;;;16.50;;
6105;SDS011;3083;51.508;7.966;2023-08-12T05:12:29;22.70;;;16.55;;
6105;SDS011;3083;51.508;7.966;2023-08-12T05:14:56;21.20;;;16.40;;
6105;SDS011;3083;51.508;7.966;2023-08-12T05:17:24;18.60;;;14.57;;
6105;SDS011;3083;51.508;7.966;2023-08-12T05:19:50;17.00;;;12.53;;
6105;SDS011;3083;51.508;7.966;2023-08-12T05:22:19;14.00;;;11.60;;
6105;SDS011;3083;51.508;7.966;2023-08-12T05:24:46;15.40;;;12.50;;
6105;SDS011;3083;51.508;7.966;2023-08-12T05:27:13;14.67;;;10.87;;
6105;SDS011;3083;51.508;7.966;2023-08-12T05:29:40;13.50;;;10.10;;
6105;SDS011;3083;51.508;7.966;2023-08-12T05:32:07;12.20;;;10.00;;
6105;SDS011;3083;51.508;7.966;2023-08-12T05:34:34;14.27;;;10.63;;
6105;SDS011;3083;51.508;7.966;2023-08-12T05:37:01;16.00;;;12.07;;
6105;SDS011;3083;51.508;7.966;2023-08-12T05:39:30;16.30;;;12.33;;
6105;SDS011;3083;51.508;7.966;2023-08-12T05:41:57;18.90;;;14.97;;
6105;SDS011;3083;51.508;7.966;2023-08-12T05:44:24;20.20;;;16.30;;
6105;SDS011;3083;51.508;7.966;2023-08-12T05:46:51;20.30;;;14.53;;
6105;SDS011;3083;51.508;7.966;2023-08-12T05:49:18;16.00;;;13.17;;
6105;SDS011;3083;51.508;7.966;2023-08-12T05:51:45;19.53;;;13.50;;
6105;SDS011;3083;51.508;7.966;2023-08-12T05:54:12;13.97;;;11.80;;
6105;SDS011;3083;51.508;7.966;2023-08-12T05:56:40;12.10;;;10.40;;
6105;SDS011;3083;51.508;7.966;2023-08-12T05:59:07;12.60;;;10.40;;
6105;SDS011;3083;51.508;7.966;2023-08-12T06:01:34;14.40;;;11.47;;
6105;SDS011;3083;51.508;7.966;2023-08-12T06:04:01;12.50;;;9.70;;
6105;SDS011;3083;51.508;7.966;2023-08-12T06:06:28;11.77;;;9.70;;
6105;SDS011;3083;51.508;7.966;2023-08-12T06:08:56;11.63;;;10.17;;
6105;SDS011;3083;51.508;7.966;2023-08-12T06:11:23;14.13;;;11.53;;
6105;SDS011;3083;51.508;7.966;2023-08-12T06:13:51;13.40;;;11.57;;
6105;SDS011;3083;51.508;7.966;2023-08-12T06:16:18;16.60;;;13.50;;
6105;SDS011;3083;51.508;7.966;2023-08-12T06:18:45;18.07;;;14.07;;
6105;SDS011;3083;51.508;7.966;2023-08-12T06:21:12;12.70;;;11.10;;
6105;SDS011;3083;51.508;7.966;2023-08-12T06:23:39;10.50;;;9.23;;
6105;SDS011;3083;51.508;7.966;2023-08-12T06:26:09;11.63;;;8.03;;
6105;SDS011;3083;51.508;7.966;2023-08-12T06:28:36;10.07;;;8.10;;
6105;SDS011;3083;51.508;7.966;2023-08-12T06:31:04;8.73;;;7.77;;
6105;SDS011;3083;51.508;7.966;2023-08-12T06:33:31;9.50;;;7.47;;
6105;SDS011;3083;51.508;7.966;2023-08-12T06:35:58;11.40;;;7.73;;
6105;SDS011;3083;51.508;7.966;2023-08-12T06:38:26;9.60;;;8.13;;
6105;SDS011;3083;51.508;7.966;2023-08-12T06:40:53;10.60;;;7.40;;
6105;SDS011;3083;51.508;7.966;2023-08-12T06:43:20;9.93;;;8.10;;
6105;SDS011;3083;51.508;7.966;2023-08-12T06:45:47;8.43;;;7.53;;
6105;SDS011;3083;51.508;7.966;2023-08-12T06:48:16;9.77;;;6.70;;
6105;SDS011;3083;51.508;7.966;2023-08-12T06:50:43;7.63;;;6.50;;
6105;SDS011;3083;51.508;7.966;2023-08-12T06:53:13;7.63;;;6.20;;
6105;SDS011;3083;51.508;7.966;2023-08-12T06:55:43;5.90;;;4.70;;
6105;SDS011;3083;51.508;7.966;2023-08-12T06:58:11;5.93;;;4.90;;
6105;SDS011;3083;51.508;7.966;2023-08-12T07:00:39;5.60;;;4.43;;
6105;SDS011;3083;51.508;7.966;2023-08-12T07:03:06;5.67;;;4.27;;
6105;SDS011;3083;51.508;7.966;2023-08-12T07:05:34;6.43;;;4.73;;
6105;SDS011;3083;51.508;7.966;2023-08-12T07:08:01;7.40;;;5.60;;
6105;SDS011;3083;51.508;7.966;2023-08-12T07:10:28;6.50;;;5.60;;
6105;SDS011;3083;51.508;7.966;2023-08-12T07:12:55;8.07;;;5.10;;
6105;SDS011;3083;51.508;7.966;2023-08-12T07:15:22;6.13;;;5.07;;
6105;SDS011;3083;51.508;7.966;2023-08-12T07:17:49;6.93;;;4.80;;
6105;SDS011;3083;51.508;7.966;2023-08-12T07:20:17;7.23;;;5.10;;
6105;SDS011;3083;51.508;7.966;2023-08-12T07:22:45;7.27;;;5.90;;
6105;SDS011;3083;51.508;7.966;2023-08-12T07:25:12;5.70;;;4.90;;
6105;SDS011;3083;51.508;7.966;2023-08-12T07:27:39;6.63;;;5.03;;
6105;SDS011;3083;51.508;7.966;2023-08-12T07:30:07;6.77;;;5.30;;
6105;SDS011;3083;51.508;7.966;2023-08-12T07:32:35;7.33;;;5.73;;
6105;SDS011;3083;51.508;7.966;2023-08-12T07:35:04;8.70;;;5.07;;
6105;SDS011;3083;51.508;7.966;2023-08-12T07:37:32;6.80;;;5.43;;
6105;SDS011;3083;51.508;7.966;2023-08-12T07:40:00;7.57;;;5.50;;
6105;SDS011;3083;51.508;7.966;2023-08-12T07:42:28;7.37;;;5.70;;
6105;SDS011;3083;51.508;7.966;2023-08-12T07:44:55;8.90;;;6.43;;
6105;SDS011;3083;51.508;7.966;2023-08-12T07:47:22;7.30;;;5.80;;
6105;SDS011;3083;51.508;7.966;2023-08-12T07:49:49;8.43;;;5.37;;
6105;SDS011;3083;51.508;7.966;2023-08-12T07:52:16;9.87;;;6.90;;
6105;SDS011;3083;51.508;7.966;2023-08-12T07:54:43;7.43;;;5.70;;
6105;SDS011;3083;51.508;7.966;2023-08-12T07:57:12;8.90;;;6.70;;
6105;SDS011;3083;51.508;7.966;2023-08-12T07:59:39;8.50;;;5.70;;
6105;SDS011;3083;51.508;7.966;2023-08-12T08:02:06;7.10;;;5.43;;
6105;SDS011;3083;51.508;7.966;2023-08-12T08:04:33;7.50;;;5.50;;
6105;SDS011;3083;51.508;7.966;2023-08-12T08:07:00;7.53;;;5.57;;
6105;SDS011;3083;51.508;7.966;2023-08-12T08:09:27;6.97;;;5.47;;
6105;SDS011;3083;51.508;7.966;2023-08-12T08:11:54;9.00;;;6.67;;
6105;SDS011;3083;51.508;7.966;2023-08-12T08:14:23;9.87;;;6.90;;
6105;SDS011;3083;51.508;7.966;2023-08-12T08:16:50;8.27;;;5.70;;
6105;SDS011;3083;51.508;7.966;2023-08-12T08:19:17;8.43;;;5.90;;
6105;SDS011;3083;51.508;7.966;2023-08-12T08:21:44;7.47;;;6.37;;
6105;SDS011;3083;51.508;7.966;2023-08-12T08:24:11;8.03;;;5.90;;
6105;SDS011;3083;51.508;7.966;2023-08-12T08:26:38;7.60;;;5.70;;
6105;SDS011;3083;51.508;7.966;2023-08-12T08:29:06;6.00;;;4.67;;
6105;SDS011;3083;51.508;7.966;2023-08-12T08:31:35;8.30;;;4.90;;
6105;SDS011;3083;51.508;7.966;2023-08-12T08:34:02;6.70;;;4.93;;
6105;SDS011;3083;51.508;7.966;2023-08-12T08:36:29;7.60;;;4.13;;
6105;SDS011;3083;51.508;7.966;2023-08-12T08:38:56;6.00;;;4.37;;
6105;SDS011;3083;51.508;7.966;2023-08-12T08:41:23;6.03;;;4.43;;
6105;SDS011;3083;51.508;7.966;2023-08-12T08:43:52;5.87;;;4.00;;
6105;SDS011;3083;51.508;7.966;2023-08-12T08:46:21;7.20;;;3.90;;
6105;SDS011;3083;51.508;7.966;2023-08-12T08:48:50;6.20;;;4.40;;
6105;SDS011;3083;51.508;7.966;2023-08-12T08:51:18;7.50;;;4.30;;
6105;SDS011;3083;51.508;7.966;2023-08-12T08:53:46;4.80;;;3.80;;
6105;SDS011;3083;51.508;7.966;2023-08-12T08:56:14;9.00;;;3.70;;
6105;SDS011;3083;51.508;7.966;2023-08-12T08:58:42;4.70;;;3.37;;
6105;SDS011;3083;51.508;7.966;2023-08-12T09:01:09;4.90;;;3.50;;
6105;SDS011;3083;51.508;7.966;2023-08-12T09:03:37;6.03;;;3.80;;
6105;SDS011;3083;51.508;7.966;2023-08-12T09:06:07;4.60;;;3.57;;
6105;SDS011;3083;51.508;7.966;2023-08-12T09:08:34;7.87;;;3.97;;
6105;SDS011;3083;51.508;7.966;2023-08-12T09:11:04;5.80;;;3.70;;
6105;SDS011;3083;51.508;7.966;2023-08-12T09:13:32;4.90;;;3.90;;
6105;SDS011;3083;51.508;7.966;2023-08-12T09:15:59;5.17;;;3.70;;
6105;SDS011;3083;51.508;7.966;2023-08-12T09:18:26;5.83;;;4.00;;
6105;SDS011;3083;51.508;7.966;2023-08-12T09:20:55;6.05;;;3.90;;
6105;SDS011;3083;51.508;7.966;2023-08-12T09:23:23;4.50;;;3.77;;
6105;SDS011;3083;51.508;7.966;2023-08-12T09:25:52;5.03;;;3.50;;
6105;SDS011;3083;51.508;7.966;2023-08-12T09:28:20;5.17;;;3.47;;
6105;SDS011;3083;51.508;7.966;2023-08-12T09:30:50;5.80;;;3.80;;
6105;SDS011;3083;51.508;7.966;2023-08-12T09:33:23;4.00;;;3.37;;
6105;SDS011;3083;51.508;7.966;2023-08-12T09:35:51;5.00;;;3.37;;
6105;SDS011;3083;51.508;7.966;2023-08-12T09:38:21;4.70;;;3.07;;
6105;SDS011;3083;51.508;7.966;2023-08-12T09:40:51;4.40;;;3.10;;
6105;SDS011;3083;51.508;7.966;2023-08-12T09:43:23;4.60;;;3.10;;
6105;SDS011;3083;51.508;7.966;2023-08-12T09:45:50;3.70;;;2.73;;
6105;SDS011;3083;51.508;7.966;2023-08-12T09:48:17;4.20;;;2.80;;
6105;SDS011;3083;51.508;7.966;2023-08-12T09:50:45;5.73;;;2.77;;
6105;SDS011;3083;51.508;7.966;2023-08-12T09:53:12;3.30;;;2.40;;
6105;SDS011;3083;51.508;7.966;2023-08-12T09:55:40;3.85;;;2.60;;
6105;SDS011;3083;51.508;7.966;2023-08-12T09:58:09;3.70;;;2.45;;
6105;SDS011;3083;51.508;7.966;2023-08-12T10:00:36;3.80;;;2.50;;
6105;SDS011;3083;51.508;7.966;2023-08-12T10:03:06;3.90;;;2.30;;
6105;SDS011;3083;51.508;7.966;2023-08-12T10:05:34;3.97;;;2.30;;
6105;SDS011;3083;51.508;7.966;2023-08-12T10:08:01;3.70;;;2.13;;
6105;SDS011;3083;51.508;7.966;2023-08-12T10:10:30;3.00;;;2.17;;
6105;SDS011;3083;51.508;7.966;2023-08-12T10:13:00;4.23;;;2.00;;
6105;SDS011;3083;51.508;7.966;2023-08-12T10:15:28;5.43;;;2.63;;
6105;SDS011;3083;51.508;7.966;2023-08-12T10:17:56;3.07;;;2.20;;
6105;SDS011;3083;51.508;7.966;2023-08-12T10:20:24;3.90;;;2.30;;
6105;SDS011;3083;51.508;7.966;2023-08-12T10:22:52;3.63;;;2.20;;
6105;SDS011;3083;51.508;7.966;2023-08-12T10:25:21;4.73;;;2.17;;
6105;SDS011;3083;51.508;7.966;2023-08-12T10:27:51;3.60;;;2.00;;
6105;SDS011;3083;51.508;7.966;2023-08-12T10:30:20;3.33;;;2.20;;
6105;SDS011;3083;51.508;7.966;2023-08-12T10:32:47;2.60;;;1.80;;
6105;SDS011;3083;51.508;7.966;2023-08-12T10:35:14;2.90;;;1.87;;
6105;SDS011;3083;51.508;7.966;2023-08-12T10:37:42;3.40;;;2.03;;
6105;SDS011;3083;51.508;7.966;2023-08-12T10:40:19;2.90;;;2.00;;
6105;SDS011;3083;51.508;7.966;2023-08-12T10:42:48;3.10;;;1.90;;
6105;SDS011;3083;51.508;7.966;2023-08-12T10:45:16;3.97;;;2.20;;
6105;SDS011;3083;51.508;7.966;2023-08-12T10:47:48;3.07;;;2.37;;
6105;SDS011;3083;51.508;7.966;2023-08-12T10:50:19;4.45;;;2.65;;
6105;SDS011;3083;51.508;7.966;2023-08-12T10:52:48;3.40;;;2.50;;
6105;SDS011;3083;51.508;7.966;2023-08-12T10:55:18;4.30;;;2.53;;
6105;SDS011;3083;51.508;7.966;2023-08-12T10:57:47;3.60;;;2.20;;
6105;SDS011;3083;51.508;7.966;2023-08-12T11:00:15;4.17;;;2.83;;
6105;SDS011;3083;51.508;7.966;2023-08-12T11:02:48;5.50;;;3.10;;
6105;SDS011;3083;51.508;7.966;2023-08-12T11:05:16;4.97;;;3.00;;
6105;SDS011;3083;51.508;7.966;2023-08-12T11:07:45;3.97;;;3.03;;
6105;SDS011;3083;51.508;7.966;2023-08-12T11:10:14;9.13;;;3.87;;
6105;SDS011;3083;51.508;7.966;2023-08-12T11:12:47;5.47;;;3.77;;
6105;SDS011;3083;51.508;7.966;2023-08-12T11:15:28;4.75;;;3.60;;
6105;SDS011;3083;51.508;7.966;2023-08-12T11:17:59;4.77;;;3.50;;
6105;SDS011;3083;51.508;7.966;2023-08-12T11:20:28;5.23;;;3.60;;
6105;SDS011;3083;51.508;7.966;2023-08-12T11:22:55;4.40;;;3.73;;
6105;SDS011;3083;51.508;7.966;2023-08-12T11:25:24;5.83;;;3.50;;
6105;SDS011;3083;51.508;7.966;2023-08-12T11:27:53;4.60;;;3.63;;
6105;SDS011;3083;51.508;7.966;2023-08-12T11:30:20;4.30;;;3.60;;
6105;SDS011;3083;51.508;7.966;2023-08-12T11:32:48;5.60;;;3.60;;
6105;SDS011;3083;51.508;7.966;2023-08-12T11:35:18;4.77;;;3.50;;
6105;SDS011;3083;51.508;7.966;2023-08-12T11:37:46;4.80;;;3.80;;
6105;SDS011;3083;51.508;7.966;2023-08-12T11:40:15;4.73;;;3.97;;
6105;SDS011;3083;51.508;7.966;2023-08-12T11:42:43;4.40;;;3.80;;
6105;SDS011;3083;51.508;7.966;2023-08-12T11:45:11;4.70;;;3.40;;
6105;SDS011;3083;51.508;7.966;2023-08-12T11:47:40;5.00;;;3.90;;
6105;SDS011;3083;51.508;7.966;2023-08-12T11:50:09;4.83;;;3.40;;
6105;SDS011;3083;51.508;7.966;2023-08-12T11:52:38;4.10;;;3.30;;
6105;SDS011;3083;51.508;7.966;2023-08-12T11:55:07;4.70;;;3.80;;
6105;SDS011;3083;51.508;7.966;2023-08-12T11:57:35;5.23;;;3.73;;
6105;SDS011;3083;51.508;7.966;2023-08-12T12:00:03;6.53;;;3.50;;
6105;SDS011;3083;51.508;7.966;2023-08-12T12:02:38;4.20;;;3.20;;
6105;SDS011;3083;51.508;7.966;2023-08-12T12:05:07;4.90;;;3.00;;
6105;SDS011;3083;51.508;7.966;2023-08-12T12:07:36;6.63;;;3.63;;
6105;SDS011;3083;51.508;7.966;2023-08-12T12:10:05;6.13;;;3.27;;
6105;SDS011;3083;51.508;7.966;2023-08-12T12:12:33;3.87;;;2.90;;
6105;SDS011;3083;51.508;7.966;2023-08-12T12:15:01;5.10;;;2.70;;
6105;SDS011;3083;51.508;7.966;2023-08-12T12:17:29;3.50;;;2.53;;
6105;SDS011;3083;51.508;7.966;2023-08-12T12:19:58;4.27;;;3.17;;
6105;SDS011;3083;51.508;7.966;2023-08-12T12:22:26;8.33;;;2.60;;
6105;SDS011;3083;51.508;7.966;2023-08-12T12:24:57;4.13;;;3.03;;
6105;SDS011;3083;51.508;7.966;2023-08-12T12:27:25;4.60;;;2.70;;
6105;SDS011;3083;51.508;7.966;2023-08-12T12:29:52;3.80;;;2.53;;
6105;SDS011;3083;51.508;7.966;2023-08-12T12:32:20;4.77;;;2.43;;
6105;SDS011;3083;51.508;7.966;2023-08-12T12:34:47;3.80;;;2.43;;
6105;SDS011;3083;51.508;7.966;2023-08-12T12:37:14;3.30;;;2.40;;
6105;SDS011;3083;51.508;7.966;2023-08-12T12:39:41;5.55;;;3.00;;
6105;SDS011;3083;51.508;7.966;2023-08-12T12:42:10;3.70;;;2.80;;
6105;SDS011;3083;51.508;7.966;2023-08-12T12:44:37;4.20;;;2.70;;
6105;SDS011;3083;51.508;7.966;2023-08-12T12:47:04;4.90;;;2.63;;
6105;SDS011;3083;51.508;7.966;2023-08-12T12:49:31;4.73;;;2.87;;
6105;SDS011;3083;51.508;7.966;2023-08-12T12:51:58;3.90;;;2.80;;
6105;SDS011;3083;51.508;7.966;2023-08-12T12:54:25;4.10;;;3.10;;
6105;SDS011;3083;51.508;7.966;2023-08-12T12:56:52;4.70;;;3.60;;
6105;SDS011;3083;51.508;7.966;2023-08-12T12:59:21;5.10;;;3.27;;
6105;SDS011;3083;51.508;7.966;2023-08-12T13:01:48;5.47;;;3.90;;
6105;SDS011;3083;51.508;7.966;2023-08-12T13:04:15;6.00;;;3.30;;
6105;SDS011;3083;51.508;7.966;2023-08-12T13:06:42;5.47;;;3.73;;
6105;SDS011;3083;51.508;7.966;2023-08-12T13:09:09;4.13;;;3.30;;
6105;SDS011;3083;51.508;7.966;2023-08-12T13:11:36;6.43;;;4.10;;
6105;SDS011;3083;51.508;7.966;2023-08-12T13:14:04;6.10;;;3.83;;
6105;SDS011;3083;51.508;7.966;2023-08-12T13:16:32;5.30;;;3.70;;
6105;SDS011;3083;51.508;7.966;2023-08-12T13:18:59;5.03;;;3.73;;
6105;SDS011;3083;51.508;7.966;2023-08-12T13:21:26;8.10;;;3.87;;
6105;SDS011;3083;51.508;7.966;2023-08-12T13:23:53;5.87;;;4.10;;
6105;SDS011;3083;51.508;7.966;2023-08-12T13:26:21;5.50;;;4.40;;
6105;SDS011;3083;51.508;7.966;2023-08-12T13:28:48;6.65;;;4.35;;
6105;SDS011;3083;51.508;7.966;2023-08-12T13:31:15;5.37;;;4.10;;
6105;SDS011;3083;51.508;7.966;2023-08-12T13:33:44;6.57;;;4.60;;
6105;SDS011;3083;51.508;7.966;2023-08-12T13:36:11;6.50;;;4.33;;
6105;SDS011;3083;51.508;7.966;2023-08-12T13:38:38;7.90;;;4.83;;
6105;SDS011;3083;51.508;7.966;2023-08-12T13:41:05;5.80;;;3.97;;
6105;SDS011;3083;51.508;7.966;2023-08-12T13:43:32;4.37;;;2.83;;
6105;SDS011;3083;51.508;7.966;2023-08-12T13:46:00;4.50;;;2.80;;
6105;SDS011;3083;51.508;7.966;2023-08-12T13:48:27;3.77;;;2.80;;
6105;SDS011;3083;51.508;7.966;2023-08-12T13:50:56;4.67;;;3.13;;
6105;SDS011;3083;51.508;7.966;2023-08-12T13:53:23;4.10;;;3.20;;
6105;SDS011;3083;51.508;7.966;2023-08-12T13:55:50;4.50;;;3.17;;
6105;SDS011;3083;51.508;7.966;2023-08-12T13:58:17;3.90;;;2.90;;
6105;SDS011;3083;51.508;7.966;2023-08-12T14:00:44;4.00;;;2.93;;
6105;SDS011;3083;51.508;7.966;2023-08-12T14:03:11;3.53;;;2.63;;
6105;SDS011;3083;51.508;7.966;2023-08-12T14:05:38;3.77;;;2.60;;
6105;SDS011;3083;51.508;7.966;2023-08-12T14:08:07;4.50;;;2.83;;
6105;SDS011;3083;51.508;7.966;2023-08-12T14:10:34;4.23;;;3.10;;
6105;SDS011;3083;51.508;7.966;2023-08-12T14:13:01;4.77;;;3.40;;
6105;SDS011;3083;51.508;7.966;2023-08-12T14:15:28;3.80;;;2.90;;
6105;SDS011;3083;51.508;7.966;2023-08-12T14:17:55;5.37;;;3.90;;
6105;SDS011;3083;51.508;7.966;2023-08-12T14:20:22;4.30;;;3.30;;
6105;SDS011;3083;51.508;7.966;2023-08-12T14:22:49;4.13;;;3.20;;
6105;SDS011;3083;51.508;7.966;2023-08-12T14:25:17;4.53;;;3.57;;
6105;SDS011;3083;51.508;7.966;2023-08-12T14:27:44;4.50;;;3.27;;
6105;SDS011;3083;51.508;7.966;2023-08-12T14:30:12;5.30;;;3.00;;
6105;SDS011;3083;51.508;7.966;2023-08-12T14:32:39;3.13;;;1.47;;
6105;SDS011;3083;51.508;7.966;2023-08-12T14:35:06;3.07;;;1.80;;
6105;SDS011;3083;51.508;7.966;2023-08-12T14:37:34;4.20;;;1.50;;
6105;SDS011;3083;51.508;7.966;2023-08-12T14:40:04;2.90;;;1.60;;
6105;SDS011;3083;51.508;7.966;2023-08-12T14:42:34;4.03;;;1.70;;
6105;SDS011;3083;51.508;7.966;2023-08-12T14:45:01;4.23;;;1.50;;
6105;SDS011;3083;51.508;7.966;2023-08-12T14:47:28;3.00;;;1.55;;
6105;SDS011;3083;51.508;7.966;2023-08-12T14:49:55;3.57;;;1.90;;
6105;SDS011;3083;51.508;7.966;2023-08-12T14:52:22;4.57;;;2.00;;
6105;SDS011;3083;51.508;7.966;2023-08-12T14:54:49;3.53;;;2.20;;
6105;SDS011;3083;51.508;7.966;2023-08-12T14:57:17;3.70;;;2.40;;
6105;SDS011;3083;51.508;7.966;2023-08-12T14:59:45;4.00;;;2.53;;
6105;SDS011;3083;51.508;7.966;2023-08-12T15:02:15;4.20;;;2.50;;
6105;SDS011;3083;51.508;7.966;2023-08-12T15:04:42;4.50;;;2.90;;
6105;SDS011;3083;51.508;7.966;2023-08-12T15:07:11;4.77;;;3.23;;